This is the latest recevied weather packets stored in our database for station/object DM4SB-13. If no packets are shown the sender has not sent any weather packets the latest 10 day(s).
| Time | Temp. | Humidity | Pressure | Rain* | Wind** | Luminosity | Snow |
|---|---|---|---|---|---|---|---|
| 1778102418 | 13.33° C | 73% | 1011 hPa | - | - | - | - |
| 1778098818 | 13.89° C | 72% | 1010.7 hPa | - | - | - | - |
| 1778097624 | 13.89° C | 72% | 1010.4 hPa | - | - | - | - |
| 1778095218 | 13.89° C | 73% | 1010 hPa | - | - | - | - |
| 1778094618 | 13.89° C | 72% | 1010 hPa | - | - | - | - |
| 1778094018 | 13.89° C | 73% | 1009.9 hPa | - | - | - | - |
| 1778091617 | 14.44° C | 72% | 1009.1 hPa | - | - | - | - |
| 1778091017 | 14.44° C | 73% | 1009.2 hPa | - | - | - | - |
| 1778089218 | 14.44° C | 73% | 1008.5 hPa | - | - | - | - |
| 1778088018 | 15° C | 72% | 1008.4 hPa | - | - | - | - |
| 1778085017 | 15.56° C | 69% | 1007.2 hPa | - | - | - | - |
| 1778084418 | 16.11° C | 67% | 1007 hPa | - | - | - | - |
| 1778083218 | 16.11° C | 65% | 1007 hPa | - | - | - | - |
| 1778080818 | 16.11° C | 66% | 1006.2 hPa | - | - | - | - |
| 1778079018 | 16.67° C | 66% | 1006.2 hPa | - | - | - | - |
| 1778077818 | 17.22° C | 64% | 1005.5 hPa | - | - | - | - |
| 1778077218 | 17.22° C | 63% | 1005.3 hPa | - | - | - | - |
| 1778076618 | 17.22° C | 63% | 1005.3 hPa | - | - | - | - |
| 1778076018 | 17.22° C | 63% | 1005.3 hPa | - | - | - | - |
| 1778074817 | 17.78° C | 62% | 1005.1 hPa | - | - | - | - |
| 1778071818 | 16.67° C | 64% | 1005.5 hPa | - | - | - | - |
| 1778070618 | 16.67° C | 65% | 1005.6 hPa | - | - | - | - |
| 1778070017 | 16.67° C | 65% | 1005.6 hPa | - | - | - | - |
| 1778069418 | 16.67° C | 64% | 1005.7 hPa | - | - | - | - |
| 1778068817 | 16.67° C | 66% | 1005.8 hPa | - | - | - | - |
* Rain since midnight (hover to see other rain measurements)
** Current wind speed in m/s (hover to see current wind gust speed)